• Join FlightAware (Why Join?)
  • Login
  • US Flag 
03:38AM EST


 

Airport Tracker/Info


-or-


 

Live Flight TrackerFlight Track Log ✈ N5946C ✈ 14-Sep-2013 ✈ 7B2 - KFOK

Flight Track Log - Related Links

Times and Time Zones

All times are in EDT time to prevent confusion due to time zone crossing. See the N5946C flight status page for this flight to view local times or setup timezone preferences in your user account.

Time Position Orientation Groundspeed Altitude Reporting Facility
EDT Latitude Longitude Course Direction KTS MPH feet Rate Location/Type
04:46PM 42.2208 -72.6531 181° South 139 160 3,400  Level Boston Center
04:47PM 42.1772 -72.6614 188° South 148 170 4,100 540 Climbing Boston Center
04:48PM 42.1375 -72.6583 177° South 140 161 4,600 540 Climbing Boston Center
04:49PM 42.0981 -72.6583 180° South 143 165 5,300 540 Climbing Boston Center
04:50PM 42.0583 -72.6553 177° South 142 163 5,800 480 Climbing Boston Center
04:51PM 42.0159 -72.6156 181° South  Level Estimated
04:51PM 42.0167 -72.6553 180° South 150 173 6,300  Level Boston Center
04:52PM 41.9750 -72.6550 180° South 146 168 6,700 120 Climbing Boston Center
04:53PM 41.9250 -72.6606 185° South 163 188 6,600 -60 Descending Boston Center
04:54PM 41.8750 -72.6603 180° South 162 186 6,600  Level Boston Center
04:55PM 41.8394 -72.6575 177° South 166 191 6,600  Level Boston Center
04:56PM 41.7917 -72.6572 180° South 162 186 6,600  Level Boston Center
04:57PM 41.7519 -72.6544 177° South 166 191 6,700  Climbing Boston Center
04:58PM 41.7083 -72.6569 182° South 164 189 6,600 -60 Descending Boston Center
04:59PM 41.6561 -72.6511 175° South 166 191 6,600  Level Boston Center
05:00PM 41.6083 -72.6483 178° South 162 186 6,600  Level Boston Center
05:01PM 41.5667 -72.6453 177° South 158 182 6,600 -120 Level Boston Center
05:03PM 41.5000 -72.6333 172° South 166 191 6,400 -240 Descending New York TRACON
05:04PM 41.4500 -72.6333 180° South 183 211 6,000 -420 Descending New York TRACON
05:05PM 41.4000 -72.6333 180° South 182 209 5,600 -360 Descending New York TRACON
05:06PM 41.3500 -72.6333 180° South 175 201 5,300 -420 Descending New York TRACON
05:07PM 41.3000 -72.6333 180° South 174 200 4,800 -600 Descending New York TRACON
05:08PM 41.2500 -72.6333 180° South 174 200 4,200 -540 Descending New York TRACON
05:08PM 41.2000 -72.6333 180° South 172 198 3,800 -540 Descending New York TRACON
05:09PM 41.1500 -72.6333 180° South 175 201 3,200 -600 Descending New York TRACON
05:11PM 41.1275 -72.6784 236° Southwest  Level FlightAware Approximate
05:18PM 40.8874 -72.7248 123° Southeast  Level FlightAware Approximate
05:19PM 40.8663 -72.6826 123° Southeast  Level FlightAware Approximate
05:20PM 40.8453 -72.6405 123° Southeast  Level FlightAware Approximate
05:21PM 40.8437 -72.6318 123° Southeast  Level Estimated
05:22PM 40.8437 -72.6318 123° Southeast  Level Estimated
05:23PM 40.8437 -72.6318 123° Southeast  Level Estimated
05:24PM 40.8437 -72.6318 123° Southeast  Level Estimated
05:25PM 40.8437 -72.6318 123° Southeast  Level Estimated
05:26PM 40.8437 -72.6318 123° Southeast  Level Estimated
05:27PM 40.8437 -72.6318 123° Southeast  Level Estimated
05:28PM 40.8437 -72.6318 123° Southeast  Level Estimated
05:29PM 40.8437 -72.6318 123° Southeast  Level Estimated
05:30PM 40.8437 -72.6318 123° Southeast  Level Estimated
05:31PM 40.8437 -72.6318 123° Southeast  Level Estimated
05:32PM 40.8437 -72.6318 123° Southeast  Level Estimated
05:33PM 40.8437 -72.6318 123° Southeast  Level Estimated
05:34PM 40.8437 -72.6318 123° Southeast  Level Estimated
05:35PM 40.8437 -72.6318 123° Southeast  Level Estimated
05:36PM 40.8437 -72.6318 123° Southeast  Level Estimated
05:37PM 40.8437 -72.6318 123° Southeast  Level Estimated
05:38PM 40.8437 -72.6318 123° Southeast  Level Estimated
05:39PM 40.8437 -72.6318 123° Southeast  Level Estimated
05:40PM 40.8437 -72.6318 123° Southeast  Level Estimated